Share

Sauk Centre, MN

Sauk Centre (KMNSAUKC3) Elev 1240 ft | 45.74 °N, 94.96 °W | Change Station

Current weather conditions updated 2 seconds ago

Scattered Clouds
Scattered Clouds
42.4 °F
Feels Like 37 °F
N
9.8
Wind Variable Wind from SE
Gusts 22.1 mph
Sunrise 6:28 AM
Sunset 8:10 PM
Moon Waning Gibbous

Today is forecast to be nearly the same temperature as yesterday. A few showers developing late tonight.

Pressure 30.29 in
Visibility 10.0 miles
Clouds Scattered Clouds 7000 ft
Windchill 37 °F
Dew Point 30 °F
Humidity 61%
Rainfall 0.00 in
Snow Depth Not available.
UV 6 out of 16
Pollen 9.40 out of 12
Air Quality Not available.
Flu Activity Sporadic
METAR KGHW 181653Z AUTO 12014KT 10SM SCT070 04/M03 A3029 RMK AO2

More Conditions Fewer Conditions

Pressure 30.29 in
Visibility 10.0 miles
Clouds Scattered Clouds 7000 ft
Windchill 37 °F
Dew Point 30 °F
Humidity 61%
Rainfall 0.00 in
Snow Depth Not available.
UV 6 out of 16
Pollen 9.40 out of 12
Air Quality Not available.
Flu Activity Sporadic
METAR KGHW 181653Z AUTO 12014KT 10SM SCT070 04/M03 A3029 RMK AO2

More Conditions Fewer Conditions

10-Day Weather Forecast

Almanac

Astronomy

Apr. 18, 2014 Rise Set
Actual Time 6:28 AM CDT 8:10 PM CDT
Civil Twilight 5:57 AM CDT 8:41 PM CDT
Nautical Twilight 5:19 AM CDT 9:20 PM CDT
Astronomical Twilight 4:38 AM CDT 10:01 PM CDT
Moon No Moon Rise 8:45 AM CDT
Length of Visible Light 14h 44m
Length of Day
13h 41m
Tomorrow will be 3m 2s longer.
Waning Gibbous, 87% of the Moon is Illuminated
Today
Waning Gibbous
Apr 22
Last Quarter
Apr 29
New
May 6
First Quarter
May 14
Full

Today's Extremes

State Highs State Lows

Community

  • What's for Lunch?
    What's for Lunch?
  • SUNRISE THROUGH THE TREES.
    SUNRISE THROUGH THE TREES.
  • Dog Wood Blossoms
    Dog Wood Blossoms
  • Morning Light
    Morning Light
  • New Day
    New Day

WunderPhotos

Upload Photos

1,702,423 photos uploaded!

Nearby

Snow Depth

Station Depth Elevation
No new snow has been reported.

Coastal Water Temperatures

Place Temperature
No Stations Reporting

Earthquake Activity

City Distance Mag. Time & Date
No recent earthquake activity has been reported nearby.
Minimum magnitude displayed is 2.5.

Nearby Weather Stations

Station Location Temp. Windchill Dew Point Humidity Wind Precip. Elev Updated Type
Sauk Centre, Sauk Centre, MN 42.4 °F 37 °F 30 °F 61% SE  at  9.8 mph 0.00 in / hr 1240 ft 12:14 PM CDT Rapid Fire
KMGK (Magic 107.1) FM, Glenwood, MN 41.9 °F 42 °F 30 °F 61% SE  at  3.0 mph 0.00 in / hr 1158 ft 12:15 PM CDT Rapid Fire
Sibley, New London, MN 39.7 °F 37 °F 28 °F 63% SW  at  4.2 mph - / hr 1230 ft 12:01 PM CDT Normal

Show More Stations Show Fewer Stations

What do you think?

We're not finished. Please let us know what you like, what you don't like, and what you are still missing.